Time;durP1;ratioP1;P1;durP2;ratioP2;P2;SDS_P1;SDS_P2;PMS_P1;PMS_P2;Temp;Humidity;BMP_temperature;BMP_pressure;BME280_temperature;BME280_humidity;BME280_pressure;Samples;Min_cycle;Max_cycle;Signal;HPM_P1;HPM_P2
2021/06/08 00:00:49;;;;;;;9.60;7.35;;;18.60;76.60;;;17.27;73.25;96317.34;4991622;28;20038;-70
2021/06/08 00:03:15;;;;;;;7.13;6.43;;;18.50;76.70;;;17.24;72.99;96314.31;4975884;28;20196;-70
2021/06/08 00:05:41;;;;;;;9.23;7.18;;;18.50;77.00;;;17.22;73.72;96316.41;4986255;28;20494;-69
2021/06/08 00:08:07;;;;;;;7.90;6.72;;;18.50;77.10;;;17.20;73.64;96315.78;4978695;28;20489;-71
2021/06/08 00:10:32;;;;;;;8.02;6.75;;;18.50;77.20;;;17.17;73.52;96311.72;4993165;28;20026;-70
2021/06/08 00:12:58;;;;;;;7.68;6.65;;;18.40;77.40;;;17.15;73.74;96303.97;4975042;28;20073;-71
2021/06/08 00:15:24;;;;;;;10.90;6.63;;;18.40;77.40;;;17.13;74.04;96314.03;5001531;28;20038;-70
2021/06/08 00:17:50;;;;;;;11.63;6.97;;;18.40;77.40;;;17.09;73.61;96310.19;4955775;28;20031;-69
2021/06/08 00:20:16;;;;;;;7.65;6.78;;;18.40;77.40;;;17.08;73.69;96307.78;4984160;28;20383;-70
2021/06/08 00:22:41;;;;;;;9.43;7.10;;;18.40;77.40;;;17.08;74.18;96308.56;4993156;28;20117;-70
2021/06/08 00:25:08;;;;;;;7.88;7.07;;;18.40;77.50;;;17.08;74.18;96313.91;4978480;28;20500;-69
2021/06/08 00:27:36;;;;;;;8.60;7.72;;;18.30;77.70;;;17.07;73.81;96306.97;4975115;28;20045;-70
2021/06/08 00:30:03;;;;;;;9.65;7.63;;;18.40;77.80;;;17.04;75.05;96306.59;4959052;28;20121;-70
2021/06/08 00:32:29;;;;;;;8.07;7.15;;;18.30;78.00;;;17.01;74.26;96305.22;4978701;28;20037;-70
2021/06/08 00:34:55;;;;;;;8.88;7.65;;;18.20;78.00;;;16.97;74.35;96306.66;4993710;28;20421;-68
2021/06/08 00:37:21;;;;;;;8.57;7.70;;;18.20;78.10;;;16.94;75.44;96309.78;4969497;28;20058;-69
2021/06/08 00:39:46;;;;;;;8.80;8.00;;;18.20;78.30;;;16.92;74.52;96306.53;4987759;28;20485;-69
2021/06/08 00:42:12;;;;;;;8.85;7.63;;;18.20;78.30;;;16.92;75.26;96309.19;4970493;28;20480;-70
2021/06/08 00:44:39;;;;;;;8.40;7.60;;;18.10;78.40;;;16.87;75.04;96314.38;4988983;28;20085;-72
2021/06/08 00:47:05;;;;;;;10.05;8.20;;;18.10;78.60;;;16.81;75.69;96308.09;4977239;28;20041;-69
2021/06/08 00:49:30;;;;;;;8.35;7.47;;;18.10;78.80;;;16.81;75.60;96304.63;4978017;28;20030;-70
2021/06/08 00:51:56;;;;;;;10.30;7.85;;;18.10;78.80;;;16.80;75.04;96305.66;4974568;28;20137;-71
2021/06/08 00:54:22;;;;;;;11.82;8.10;;;18.00;78.90;;;16.75;75.09;96302.88;4987657;28;20116;-69
2021/06/08 00:56:49;;;;;;;9.52;8.27;;;18.00;79.10;;;16.72;75.44;96295.31;4962642;28;20066;-72
2021/06/08 00:59:15;;;;;;;11.13;8.52;;;18.00;79.10;;;16.69;75.64;96304.56;4990934;28;20505;-71
2021/06/08 01:01:41;;;;;;;11.90;8.43;;;17.90;79.20;;;16.64;75.81;96298.25;4960608;28;20126;-69
2021/06/08 01:04:09;;;;;;;8.68;7.78;;;17.90;79.20;;;16.62;77.30;96293.19;4969035;28;20502;-69
2021/06/08 01:06:36;;;;;;;9.90;8.90;;;17.90;79.20;;;16.62;75.92;96281.75;4990227;28;20121;-69
2021/06/08 01:09:05;;;;;;;9.75;8.75;;;17.90;79.30;;;16.57;76.38;96287.72;4947728;28;20042;-70
2021/06/08 01:11:31;;;;;;;10.65;8.82;;;17.80;79.40;;;16.52;75.71;96288.41;4954974;28;20082;-69
2021/06/08 01:13:56;;;;;;;11.68;8.77;;;17.80;79.50;;;16.50;76.25;96281.66;4989916;28;20537;-69
2021/06/08 01:16:23;;;;;;;9.55;8.60;;;17.70;79.70;;;16.47;76.09;96284.75;4960514;28;20425;-71
2021/06/08 01:18:49;;;;;;;9.75;8.75;;;17.70;79.60;;;16.43;76.73;96276.44;4954056;28;20042;-69
2021/06/08 01:21:15;;;;;;;9.85;8.45;;;17.70;79.80;;;16.39;75.92;96272.59;4969501;28;20039;-72
2021/06/08 01:23:42;;;;;;;9.98;9.02;;;17.60;79.90;;;16.38;76.42;96276.28;4979176;28;20090;-74
2021/06/08 01:26:08;;;;;;;11.32;8.82;;;17.60;79.90;;;16.36;76.46;96278.34;4954909;28;20358;-70
2021/06/08 01:28:35;;;;;;;9.75;8.75;;;17.60;79.90;;;16.32;76.00;96281.66;4993145;23;20085;-63
2021/06/08 01:31:06;;;;;;;9.68;8.68;;;17.60;80.00;;;16.29;77.44;96277.59;4951674;28;20129;-63
2021/06/08 01:33:32;;;;;;;10.30;9.15;;;17.50;80.00;;;16.24;77.23;96274.78;4956753;28;20113;-63
2021/06/08 01:35:58;;;;;;;10.38;9.38;;;17.50;80.00;;;16.20;76.16;96281.56;5001341;28;20125;-64
2021/06/08 01:38:23;;;;;;;9.90;8.90;;;17.40;80.00;;;16.17;76.59;96274.06;4972387;28;20117;-64
2021/06/08 01:40:50;;;;;;;9.48;8.48;;;17.40;79.90;;;16.16;76.57;96272.44;4973547;28;20117;-64
2021/06/08 01:43:16;;;;;;;10.00;9.00;;;17.40;80.00;;;16.14;76.96;96274.50;4986586;28;20081;-64
2021/06/08 01:45:42;;;;;;;9.50;8.57;;;17.30;80.00;;;16.09;77.59;96283.13;4978845;28;20125;-63
2021/06/08 01:48:08;;;;;;;13.13;8.43;;;17.30;80.10;;;16.07;77.13;96279.88;4992290;28;20022;-65
2021/06/08 01:50:35;;;;;;;9.45;8.45;;;17.30;80.00;;;16.04;76.88;96287.44;4989126;28;20105;-64
2021/06/08 01:53:13;;;;;;;9.30;8.40;;;17.30;80.00;;;15.99;77.96;96279.31;4973330;28;20512;-64
2021/06/08 01:55:44;;;;;;;10.52;7.50;;;17.10;80.10;;;15.96;78.32;96293.03;4973681;28;20034;-64
2021/06/08 01:58:19;;;;;;;10.48;8.30;;;17.10;80.30;;;15.91;78.95;96286.53;4990030;28;20030;-64
2021/06/08 02:00:51;;;;;;;9.20;8.30;;;17.10;80.20;;;15.88;78.83;96294.94;4997737;28;20579;-63
2021/06/08 02:03:39;;;;;;;13.20;8.93;;;17.10;80.20;;;15.84;78.87;96291.09;4993051;28;20529;-62
2021/06/08 02:06:40;;;;;;;10.38;8.85;;;17.00;80.40;;;15.80;78.46;96295.19;4976247;28;20040;-63
2021/06/08 02:09:56;;;;;;;9.88;8.88;;;17.00;80.40;;;15.74;79.60;96290.75;5008924;28;20604;-63
2021/06/08 02:12:21;;;;;;;10.38;9.27;;;16.90;80.30;;;15.67;77.01;96297.97;4997642;28;20510;-63
2021/06/08 02:15:08;;;;;;;9.82;8.82;;;16.90;80.00;;;15.63;79.02;96299.44;5019247;28;20116;-64
2021/06/08 02:17:52;;;;;;;10.43;9.52;;;16.70;80.20;;;15.55;78.24;96286.38;4961767;28;20054;-63
2021/06/08 02:20:24;;;;;;;12.00;9.85;;;16.60;79.80;;;15.47;77.89;96294.63;5005346;28;20038;-64
2021/06/08 02:23:01;;;;;;;15.95;14.25;;;16.60;80.30;;;15.43;77.76;96294.22;5005584;28;20034;-63
2021/06/08 02:25:30;;;;;;;13.25;11.80;;;16.60;80.50;;;15.40;76.98;96293.84;5009943;28;20053;-63
2021/06/08 02:27:58;;;;;;;12.07;10.65;;;16.60;80.30;;;15.36;77.78;96297.94;4993707;28;20120;-63
2021/06/08 02:30:23;;;;;;;14.02;11.18;;;16.50;80.10;;;15.27;78.13;96294.72;4988637;28;20076;-64
2021/06/08 02:32:50;;;;;;;12.27;11.00;;;16.40;80.50;;;15.20;77.83;96302.72;4975797;28;20033;-63
2021/06/08 02:35:19;;;;;;;12.63;11.43;;;16.40;80.70;;;15.13;78.83;96304.59;5008659;28;20125;-63
2021/06/08 02:37:45;;;;;;;12.13;10.95;;;16.20;81.00;;;15.07;77.30;96308.09;5008539;28;20029;-64
2021/06/08 02:40:12;;;;;;;11.60;10.38;;;16.20;81.20;;;15.04;77.85;96300.56;5005546;28;20398;-63
2021/06/08 02:42:39;;;;;;;12.32;11.13;;;16.20;81.10;;;15.00;78.68;96299.38;5008927;28;20505;-64
2021/06/08 02:45:05;;;;;;;13.25;11.85;;;16.10;81.40;;;14.94;77.67;96298.38;4996562;28;20408;-63
2021/06/08 02:47:31;;;;;;;13.52;12.13;;;16.10;81.80;;;14.89;78.75;96297.38;4979653;28;20556;-62
2021/06/08 02:49:57;;;;;;;13.52;12.13;;;15.90;82.00;;;14.82;79.21;96307.19;4978812;28;20041;-63
2021/06/08 02:52:23;;;;;;;14.43;12.95;;;15.80;82.40;;;14.77;78.18;96312.31;4990469;28;20440;-64
2021/06/08 02:54:49;;;;;;;17.42;15.35;;;15.90;82.40;;;14.78;78.69;96311.28;5008200;28;20038;-63
2021/06/08 02:57:15;;;;;;;17.27;14.95;;;16.00;82.20;;;14.77;79.15;96310.47;4992104;28;20077;-63
2021/06/08 02:59:41;;;;;;;17.63;15.45;;;16.00;82.00;;;14.74;78.34;96304.78;4975317;28;20030;-64
2021/06/08 03:02:10;;;;;;;15.18;12.90;;;16.00;82.20;;;14.74;79.32;96315.38;4990349;28;20125;-63
2021/06/08 03:05:09;;;;;;;14.40;12.70;;;15.90;82.20;;;14.69;80.67;96321.28;5006273;28;20026;-63
2021/06/08 03:07:37;;;;;;;13.75;12.43;;;15.90;82.20;;;14.66;80.41;96322.50;4983999;28;20109;-63
2021/06/08 03:10:08;;;;;;;19.88;12.32;;;15.90;82.30;;;14.67;79.27;96326.78;5010990;28;20485;-62
2021/06/08 03:12:43;;;;;;;13.30;12.00;;;16.00;82.20;;;14.68;78.73;96323.13;4994581;28;20041;-63
2021/06/08 03:15:09;;;;;;;12.85;11.55;;;16.00;82.20;;;14.68;78.33;96325.75;5011390;28;20061;-63
2021/06/08 03:17:36;;;;;;;13.98;11.43;;;16.00;82.00;;;14.69;78.66;96324.75;4997374;28;20211;-64
2021/06/08 03:20:11;;;;;;;13.18;11.88;;;16.00;81.90;;;14.67;80.42;96324.13;5025846;28;20072;-63
2021/06/08 03:22:37;;;;;;;15.82;12.25;;;15.90;82.20;;;14.64;79.18;96329.84;4980382;28;20030;-64
2021/06/08 03:25:03;;;;;;;12.82;11.52;;;15.90;82.30;;;14.60;80.09;96331.31;4977338;28;20485;-63
2021/06/08 03:27:29;;;;;;;13.77;12.25;;;15.80;82.50;;;14.59;80.24;96328.88;4995359;28;20413;-64
2021/06/08 03:29:55;;;;;;;13.32;12.02;;;15.80;82.70;;;14.58;79.52;96328.06;4987106;28;20072;-64
2021/06/08 03:32:21;;;;;;;14.10;12.00;;;15.80;82.70;;;14.56;80.16;96330.09;4994755;28;20096;-67
2021/06/08 03:34:47;;;;;;;13.48;12.07;;;15.80;82.80;;;14.57;79.01;96339.66;5014302;28;20034;-68
2021/06/08 03:37:12;;;;;;;13.73;12.35;;;15.80;82.50;;;14.55;79.13;96341.72;4985993;28;20073;-69
2021/06/08 03:39:38;;;;;;;13.57;12.18;;;15.80;82.60;;;14.52;80.94;96338.66;4978695;28;20046;-69
2021/06/08 03:42:05;;;;;;;14.50;13.10;;;15.80;82.70;;;14.48;80.74;96338.25;4998958;28;20057;-68
2021/06/08 03:44:32;;;;;;;14.48;12.73;;;15.70;83.20;;;14.46;80.89;96340.28;4989348;28;20113;-69
2021/06/08 03:46:58;;;;;;;14.18;12.82;;;15.70;83.30;;;14.43;79.63;96343.34;4992384;28;20493;-68
2021/06/08 03:49:24;;;;;;;15.95;13.45;;;15.60;83.50;;;14.39;80.03;96339.47;5005325;28;20049;-64
2021/06/08 03:51:52;;;;;;;17.60;13.90;;;15.60;83.60;;;14.36;81.15;96339.88;4995119;28;20053;-65
2021/06/08 03:54:17;;;;;;;14.98;13.57;;;15.50;83.90;;;14.35;80.37;96344.38;4978612;28;20517;-65
2021/06/08 03:56:45;;;;;;;15.73;12.57;;;15.50;83.90;;;14.36;81.55;96347.81;5000077;28;20125;-64
2021/06/08 03:59:12;;;;;;;14.93;12.52;;;15.60;83.80;;;14.38;81.27;96343.13;4994404;28;20037;-64
2021/06/08 04:01:38;;;;;;;13.52;12.13;;;15.70;83.50;;;14.41;80.50;96350.66;5010742;28;20033;-64
2021/06/08 04:04:06;;;;;;;16.08;13.30;;;15.70;83.40;;;14.44;80.94;96346.81;4977834;28;20040;-63
2021/06/08 04:06:33;;;;;;;16.13;12.55;;;15.80;83.30;;;14.48;81.67;96348.84;4991541;28;20026;-64
2021/06/08 04:09:09;;;;;;;13.88;12.48;;;15.90;83.00;;;14.51;81.82;96345.78;4977917;28;20030;-64
2021/06/08 04:11:40;;;;;;;15.20;13.20;;;15.90;83.10;;;14.54;81.58;96358.63;4989583;28;20026;-64
2021/06/08 04:14:06;;;;;;;14.32;11.80;;;15.90;83.00;;;14.56;80.10;96351.28;5001964;28;20053;-64
2021/06/08 04:16:33;;;;;;;13.88;12.27;;;16.00;83.00;;;14.58;81.52;96348.41;4993967;28;20365;-64
2021/06/08 04:18:59;;;;;;;14.65;13.15;;;16.00;82.90;;;14.61;81.12;96354.09;5001059;28;20026;-65
2021/06/08 04:21:25;;;;;;;16.55;12.18;;;16.00;83.00;;;14.64;81.28;96353.69;4991397;28;20088;-65
2021/06/08 04:23:58;;;;;;;14.80;12.45;;;16.10;82.80;;;14.68;82.07;96360.19;4986547;28;20031;-64
2021/06/08 04:26:24;;;;;;;15.45;12.38;;;16.10;82.60;;;14.73;81.81;96350.84;5006027;28;20053;-64
2021/06/08 04:28:50;;;;;;;16.15;13.15;;;16.10;82.70;;;14.79;81.16;96360.59;5009853;28;20022;-63
2021/06/08 04:31:16;;;;;;;14.40;12.90;;;16.20;82.30;;;14.80;81.12;96368.31;5004446;28;20141;-65
2021/06/08 04:33:47;;;;;;;13.77;12.43;;;16.30;82.40;;;14.84;81.09;96368.72;4991683;28;20030;-65
2021/06/08 04:36:13;;;;;;;14.00;12.55;;;16.30;82.20;;;14.87;80.86;96363.81;4996507;28;20033;-65
2021/06/08 04:38:39;;;;;;;15.25;12.05;;;16.40;82.10;;;14.92;81.04;96365.81;5004254;28;20539;-65
2021/06/08 04:41:05;;;;;;;13.82;12.45;;;16.50;81.90;;;14.94;81.64;96363.81;4994920;28;20513;-63
2021/06/08 04:43:31;;;;;;;13.55;12.05;;;16.50;81.80;;;15.01;80.59;96359.28;4978086;28;20046;-64
2021/06/08 04:46:06;;;;;;;14.35;12.07;;;16.60;81.50;;;15.08;82.53;96364.53;4995558;28;20092;-64
2021/06/08 04:48:33;;;;;;;15.63;12.40;;;16.60;81.50;;;15.12;81.31;96366.56;4994759;28;20033;-65
2021/06/08 04:50:59;;;;;;;13.35;11.90;;;16.60;81.30;;;15.18;81.18;96371.03;4997126;28;20069;-70
2021/06/08 04:53:25;;;;;;;14.73;12.45;;;16.80;81.20;;;15.25;81.13;96369.16;5008562;28;20038;-68
2021/06/08 04:55:51;;;;;;;13.63;12.23;;;16.80;80.90;;;15.28;80.42;96374.03;5010634;28;20037;-68
2021/06/08 04:58:17;;;;;;;13.45;12.00;;;16.80;80.90;;;15.32;81.56;96364.63;5003974;28;20042;-69
2021/06/08 05:01:09;;;;;;;13.00;11.70;;;16.90;81.00;;;15.42;81.43;96371.31;4999359;28;20551;-68
2021/06/08 05:03:41;;;;;;;15.52;11.02;;;17.10;80.60;;;15.48;81.78;96370.47;4994733;28;20508;-70
2021/06/08 05:06:11;;;;;;;12.52;11.23;;;17.10;80.20;;;15.53;80.75;96367.97;4989559;28;20038;-70
2021/06/08 05:09:17;;;;;;;14.93;11.35;;;17.20;80.20;;;15.61;80.47;96371.25;5009653;28;20026;-68
2021/06/08 05:11:47;;;;;;;12.05;10.80;;;17.30;80.00;;;15.70;80.57;96373.63;4959253;28;20111;-63
2021/06/08 05:14:13;;;;;;;16.35;13.95;;;17.30;79.70;;;15.75;80.02;96369.31;4997766;28;20099;-64
2021/06/08 05:16:40;;;;;;;12.95;11.55;;;17.40;79.50;;;15.79;80.03;96373.13;4991066;28;20041;-63
2021/06/08 05:19:07;;;;;;;12.50;11.32;;;17.40;79.40;;;15.83;79.71;96370.88;4991481;28;20038;-63
2021/06/08 05:21:33;;;;;;;12.98;11.57;;;17.50;79.40;;;15.87;79.70;96375.56;4980648;28;20049;-72
2021/06/08 05:23:58;;;;;;;12.75;10.82;;;17.60;79.30;;;15.94;79.64;96375.50;4970058;28;20482;-72
2021/06/08 05:26:24;;;;;;;12.15;10.95;;;17.60;78.80;;;16.01;79.14;96378.09;4975317;28;20477;-73
2021/06/08 05:28:50;;;;;;;12.65;11.38;;;17.70;78.70;;;16.06;79.60;96379.06;5008412;28;20046;-73
2021/06/08 05:31:19;;;;;;;11.82;10.73;;;17.70;78.80;;;16.12;79.52;96378.22;4991666;28;20030;-70
2021/06/08 05:33:46;;;;;;;11.40;10.15;;;17.80;78.90;;;16.20;80.27;96385.91;5005265;28;20030;-66
2021/06/08 05:36:11;;;;;;;12.13;10.80;;;18.00;78.20;;;16.27;79.69;96383.19;4988572;28;20694;-68
2021/06/08 05:38:39;;;;;;;13.60;11.80;;;18.10;78.00;;;16.37;79.10;96385.34;5008871;28;20033;-67
2021/06/08 05:41:13;;;;;;;14.95;13.32;;;18.10;77.20;;;16.47;78.81;96385.66;4975586;28;20034;-66
2021/06/08 05:43:39;;;;;;;11.70;10.02;;;18.30;77.50;;;16.56;78.92;96388.84;4988951;28;20023;-68
2021/06/08 05:46:05;;;;;;;13.48;9.30;;;18.30;76.90;;;16.65;78.84;96390.19;4988519;28;20108;-66
2021/06/08 05:48:31;;;;;;;11.75;10.25;;;18.50;76.70;;;16.72;78.84;96394.44;4973134;28;20073;-68
2021/06/08 05:50:58;;;;;;;12.30;10.32;;;18.60;76.00;;;16.76;78.59;96390.31;4989257;28;20046;-68
2021/06/08 05:53:24;;;;;;;11.30;10.20;;;18.50;76.10;;;16.78;78.27;96393.56;4988774;28;20034;-72
2021/06/08 05:55:53;;;;;;;12.85;11.52;;;18.60;76.30;;;16.83;78.19;96400.88;4989808;28;20218;-68
2021/06/08 05:58:29;;;;;;;12.07;10.27;;;18.40;76.50;;;16.88;77.79;96398.34;4976014;28;20535;-68
2021/06/08 06:00:55;;;;;;;12.27;10.27;;;18.60;76.20;;;16.93;77.41;96403.81;4972953;28;20390;-74
2021/06/08 06:03:22;;;;;;;11.70;10.10;;;18.70;76.20;;;17.01;77.50;96392.91;4974023;28;20451;-69
2021/06/08 06:05:48;;;;;;;12.07;9.63;;;18.90;76.10;;;17.11;77.68;96403.00;5009139;28;20380;-66
2021/06/08 06:08:15;;;;;;;13.77;10.02;;;19.00;74.80;;;17.19;77.27;96396.56;5008218;28;20133;-67
2021/06/08 06:10:42;;;;;;;12.48;10.70;;;19.20;75.20;;;17.26;77.34;96394.66;5002706;28;20421;-67
2021/06/08 06:13:07;;;;;;;13.45;10.00;;;19.10;74.50;;;17.30;77.15;96393.16;5001142;28;20533;-65
2021/06/08 06:15:33;;;;;;;11.18;9.70;;;19.10;74.40;;;17.38;77.26;96398.16;5001383;28;20030;-68
2021/06/08 06:17:59;;;;;;;13.63;11.80;;;19.30;74.60;;;17.45;76.82;96394.41;4987345;28;20034;-65
2021/06/08 06:20:25;;;;;;;13.18;11.82;;;19.30;74.50;;;17.55;76.89;96393.06;5005575;28;20057;-67
2021/06/08 06:22:50;;;;;;;12.27;9.60;;;19.40;74.40;;;17.64;77.20;96397.81;4988808;28;20564;-67
2021/06/08 06:25:16;;;;;;;11.05;9.90;;;19.60;74.30;;;17.80;76.91;96398.25;4980083;28;21317;-67
2021/06/08 06:27:42;;;;;;;12.55;9.45;;;20.00;73.60;;;17.99;76.17;96400.63;4983603;28;20029;-67
2021/06/08 06:30:14;;;;;;;12.02;9.40;;;20.30;72.30;;;18.21;75.59;96397.44;4975445;28;20052;-67
2021/06/08 06:32:40;;;;;;;13.10;8.85;;;20.80;70.40;;;18.41;76.06;96405.09;5007656;28;20493;-69
2021/06/08 06:35:08;;;;;;;12.00;10.23;;;21.00;69.40;;;18.57;76.08;96399.09;4990898;28;20103;-66
2021/06/08 06:37:35;;;;;;;14.32;11.75;;;21.00;69.00;;;18.79;75.52;96397.50;4960038;28;20026;-67
2021/06/08 06:40:01;;;;;;;13.15;11.57;;;21.40;68.40;;;19.00;74.75;96397.91;4990791;28;20484;-69
2021/06/08 06:42:30;;;;;;;12.10;10.25;;;21.60;67.30;;;19.23;73.17;96400.53;5006531;28;20069;-67
2021/06/08 06:44:56;;;;;;;11.20;10.07;;;21.90;65.70;;;19.42;73.38;96399.31;5007353;28;20033;-67
2021/06/08 06:47:22;;;;;;;14.75;12.73;;;22.10;64.50;;;19.60;73.22;96394.88;4958534;28;20116;-68
2021/06/08 06:49:48;;;;;;;11.65;10.48;;;22.40;65.20;;;19.82;73.48;96398.50;5008193;28;20050;-72
2021/06/08 06:52:14;;;;;;;11.20;9.50;;;22.60;64.10;;;20.02;73.17;96400.72;5007028;28;20077;-67
2021/06/08 06:54:39;;;;;;;10.43;9.00;;;22.80;63.40;;;20.22;71.48;96397.56;4996656;28;20026;-72
2021/06/08 06:57:06;;;;;;;10.68;9.30;;;22.90;62.50;;;20.42;71.15;96395.25;4971817;28;20121;-67
2021/06/08 06:59:32;;;;;;;11.95;10.80;;;23.20;62.40;;;20.63;70.42;96397.19;4973452;28;20030;-67
2021/06/08 07:01:58;;;;;;;12.05;10.20;;;23.40;60.90;;;20.78;70.05;96389.38;4987955;28;20022;-68
2021/06/08 07:04:24;;;;;;;11.18;9.38;;;23.60;59.90;;;21.00;69.24;96393.94;4983284;28;20038;-71
2021/06/08 07:06:54;;;;;;;11.02;9.63;;;24.00;59.60;;;21.09;67.00;96392.47;5004231;28;20113;-70
2021/06/08 07:09:26;;;;;;;11.55;9.65;;;23.80;58.50;;;21.16;67.33;96393.09;4984040;28;20036;-67
2021/06/08 07:11:53;;;;;;;11.20;9.48;;;24.00;59.50;;;21.29;68.18;96399.97;4975097;28;20042;-66
2021/06/08 07:14:19;;;;;;;11.13;9.45;;;24.30;59.20;;;21.45;67.65;96399.09;4989930;28;20091;-67
2021/06/08 07:16:50;;;;;;;11.25;9.10;;;24.40;57.90;;;21.62;66.28;96399.00;4994674;28;20565;-69
2021/06/08 07:19:16;;;;;;;10.60;8.55;;;24.60;56.50;;;21.68;67.14;96403.34;4975432;28;20036;-70
2021/06/08 07:21:42;;;;;;;14.48;9.02;;;24.40;57.50;;;21.78;66.65;96397.31;4976112;28;20041;-68
2021/06/08 07:24:09;;;;;;;10.48;8.80;;;24.60;56.90;;;21.91;66.00;96411.09;4970841;28;20046;-68
2021/06/08 07:26:36;;;;;;;10.98;9.73;;;24.70;56.80;;;21.97;66.09;96410.09;4988939;28;20038;-67
2021/06/08 07:29:02;;;;;;;10.70;9.70;;;24.70;56.80;;;21.94;66.00;96394.50;4991645;28;20519;-67
2021/06/08 07:32:02;;;;;;;10.95;9.27;;;24.50;57.00;;;22.05;63.81;96403.50;4988399;28;20034;-69
2021/06/08 07:34:55;;;;;;;10.88;8.95;;;24.90;56.00;;;22.28;64.45;96394.31;4994640;28;20029;-70
2021/06/08 07:37:22;;;;;;;11.27;10.15;;;25.60;56.10;;;22.49;64.83;96406.81;5011271;28;20037;-71
2021/06/08 07:40:02;;;;;;;14.45;11.35;;;25.80;54.70;;;22.64;63.53;96408.00;4973502;28;20060;-67
2021/06/08 07:42:48;;;;;;;9.50;8.60;;;25.70;55.40;;;22.76;62.64;96401.38;4953674;28;20030;-69
2021/06/08 07:45:18;;;;;;;10.02;9.02;;;25.50;55.30;;;22.79;62.81;96400.84;4975884;28;20129;-67
2021/06/08 07:47:49;;;;;;;11.43;9.80;;;25.40;55.10;;;22.87;62.40;96402.28;4990900;28;20046;-67
2021/06/08 07:50:15;;;;;;;10.23;9.15;;;25.60;55.00;;;23.04;63.54;96402.91;4988326;28;20041;-66
2021/06/08 07:52:41;;;;;;;10.80;9.30;;;26.20;53.80;;;23.23;63.63;96395.22;4991844;28;20109;-66
2021/06/08 07:55:07;;;;;;;10.02;9.00;;;26.50;52.90;;;23.37;63.20;96393.69;5007635;28;20061;-70
2021/06/08 07:57:33;;;;;;;10.85;9.15;;;26.70;52.80;;;23.48;62.62;96391.81;4975486;28;20064;-69
2021/06/08 07:59:59;;;;;;;11.15;9.60;;;26.80;52.20;;;23.60;62.67;96397.81;5007870;28;20475;-69
2021/06/08 08:02:25;;;;;;;13.18;10.18;;;26.80;51.40;;;23.67;62.15;96384.94;4993091;28;20117;-67
2021/06/08 08:04:52;;;;;;;10.88;9.88;;;26.70;51.10;;;23.74;61.30;96382.78;4989056;28;20064;-67
2021/06/08 08:07:26;;;;;;;11.48;10.15;;;26.50;51.00;;;23.85;58.17;96394.38;4994276;28;20037;-69
2021/06/08 08:09:53;;;;;;;15.05;10.43;;;26.60;50.60;;;23.95;60.54;96398.94;4990559;28;20097;-68
2021/06/08 08:12:18;;;;;;;16.55;11.60;;;26.80;50.30;;;24.03;60.16;96395.75;4982198;28;20061;-69
2021/06/08 08:14:46;;;;;;;15.82;13.68;;;26.70;50.20;;;24.17;59.37;96402.22;4977788;28;20451;-69
2021/06/08 08:17:12;;;;;;;12.07;10.88;;;27.20;50.30;;;24.31;59.67;96400.66;4971882;28;20057;-66
2021/06/08 08:19:41;;;;;;;10.82;9.82;;;27.10;49.20;;;24.39;57.50;96391.22;4994102;28;20030;-67
2021/06/08 08:22:07;;;;;;;13.13;9.33;;;27.20;49.80;;;24.56;59.52;96401.72;4984159;28;20030;-71
2021/06/08 08:24:33;;;;;;;12.57;10.32;;;27.50;50.00;;;24.72;58.52;96396.06;4974356;28;20034;-66
2021/06/08 08:27:02;;;;;;;13.77;10.35;;;27.50;49.10;;;24.67;58.18;96403.34;4974058;28;20036;-66
2021/06/08 08:29:28;;;;;;;10.85;9.75;;;26.90;50.00;;;24.75;58.14;96400.09;4985157;28;20471;-66
2021/06/08 08:31:54;;;;;;;13.20;11.93;;;27.30;51.00;;;24.76;57.97;96401.69;4980473;28;20130;-67
2021/06/08 08:34:20;;;;;;;12.48;11.18;;;27.10;49.50;;;24.80;57.91;96397.38;5015063;28;20496;-69
2021/06/08 08:36:46;;;;;;;12.05;10.85;;;27.10;49.90;;;24.79;57.27;96401.16;4974444;28;20579;-66
2021/06/08 08:39:11;;;;;;;13.93;12.02;;;27.00;49.60;;;24.75;56.90;96410.84;4993011;28;20116;-68
2021/06/08 08:41:41;;;;;;;15.35;12.13;;;26.90;50.40;;;24.68;56.09;96404.94;4990657;28;20121;-67
2021/06/08 08:44:07;;;;;;;13.02;11.10;;;26.70;51.10;;;24.67;56.87;96408.72;4982141;28;20180;-66
2021/06/08 08:46:34;;;;;;;12.75;11.55;;;26.90;50.80;;;24.66;56.87;96402.50;4977839;28;20030;-67
2021/06/08 08:48:59;;;;;;;13.02;11.43;;;26.90;50.60;;;24.72;56.70;96404.13;5002171;28;20042;-68
2021/06/08 08:51:27;;;;;;;13.68;12.20;;;27.10;49.60;;;24.89;56.05;96400.31;5003763;28;20131;-63
2021/06/08 08:53:54;;;;;;;12.73;11.43;;;27.40;48.70;;;24.86;56.09;96403.53;4987512;28;20520;-65
2021/06/08 08:56:27;;;;;;;13.70;12.30;;;27.00;50.00;;;24.83;55.12;96402.22;4975129;28;20031;-63
2021/06/08 08:58:53;;;;;;;11.77;10.60;;;26.90;50.10;;;24.78;56.31;96404.91;4994114;28;20056;-66
2021/06/08 09:01:18;;;;;;;14.63;13.23;;;26.70;51.30;;;24.78;56.89;96407.59;4988759;28;20038;-66
2021/06/08 09:03:44;;;;;;;14.07;12.68;;;26.90;50.80;;;24.72;56.36;96406.00;4989764;28;20048;-71
2021/06/08 09:06:12;;;;;;;14.90;12.75;;;26.50;50.80;;;24.54;56.20;96403.88;4977961;28;20061;-69
2021/06/08 09:08:41;;;;;;;14.63;13.07;;;26.10;51.90;;;24.41;55.87;96406.00;4976956;28;20022;-69
2021/06/08 09:11:08;;;;;;;14.93;13.48;;;26.10;52.50;;;24.35;56.24;96406.28;4992836;28;20042;-68
2021/06/08 09:13:33;;;;;;;22.35;15.90;;;26.30;53.40;;;24.27;57.38;96404.91;4971580;28;20496;-68
2021/06/08 09:15:59;;;;;;;15.57;13.98;;;26.20;53.30;;;24.25;57.26;96406.25;4992152;28;20041;-68
2021/06/08 09:18:25;;;;;;;23.65;21.23;;;26.10;52.80;;;24.08;57.18;96406.50;4992923;28;20030;-72
2021/06/08 09:20:52;;;;;;;16.30;14.70;;;25.60;53.50;;;24.06;57.35;96400.59;4973251;28;20049;-71
2021/06/08 09:23:24;;;;;;;14.50;13.07;;;26.10;53.20;;;24.20;56.25;96407.03;4982737;28;20493;-72
2021/06/08 09:25:51;;;;;;;15.02;12.15;;;26.40;52.20;;;24.36;56.94;96406.00;5003043;28;20034;-72
2021/06/08 09:28:26;;;;;;;14.30;11.27;;;26.80;52.20;;;24.62;56.31;96406.00;4991716;28;20062;-67
2021/06/08 09:31:15;;;;;;;14.48;13.07;;;27.20;51.10;;;24.98;54.21;96404.06;4992358;28;20053;-67
2021/06/08 09:33:42;;;;;;;14.43;12.85;;;27.60;49.00;;;25.23;55.78;96403.22;5008106;28;20029;-67
2021/06/08 09:36:13;;;;;;;13.65;12.25;;;28.10;48.70;;;25.45;54.35;96403.69;4999850;28;20041;-66
2021/06/08 09:38:50;;;;;;;13.98;12.68;;;28.10;48.00;;;25.65;53.04;96403.59;4975140;28;20049;-65
2021/06/08 09:41:21;;;;;;;14.60;13.13;;;28.10;47.40;;;25.69;53.28;96409.25;4992906;28;20045;-66
2021/06/08 09:44:01;;;;;;;15.20;13.48;;;28.00;48.20;;;25.83;53.20;96409.47;4992381;28;20026;-66
2021/06/08 09:46:30;;;;;;;13.88;12.43;;;28.40;47.40;;;25.95;53.86;96401.81;4993363;28;20528;-67
2021/06/08 09:49:05;;;;;;;14.07;12.68;;;28.60;46.90;;;26.11;53.04;96411.44;4979399;28;20061;-65
2021/06/08 09:52:05;;;;;;;13.50;12.23;;;28.70;47.00;;;26.23;52.41;96409.16;4963234;28;20121;-68
2021/06/08 09:54:38;;;;;;;;;;;28.70;46.20;;;26.30;52.02;96402.69;4993351;28;20095;-66
2021/06/08 09:57:27;;;;;;;14.48;13.00;;;28.80;46.50;;;26.43;51.92;96413.66;5007306;28;20258;-67
2021/06/08 10:00:08;;;;;;;14.05;12.57;;;28.80;46.10;;;26.48;51.67;96404.69;4992263;28;20034;-67
2021/06/08 10:02:50;;;;;;;15.40;13.52;;;28.80;45.70;;;26.49;51.02;96401.75;4987873;28;20042;-65
2021/06/08 10:05:27;;;;;;;13.13;11.48;;;28.70;45.50;;;26.45;52.09;96405.25;4990972;28;20117;-67
2021/06/08 10:08:13;;;;;;;12.07;10.93;;;28.80;46.80;;;26.42;50.74;96401.25;5007947;28;20113;-65
2021/06/08 10:10:44;;;;;;;14.98;12.40;;;28.60;46.50;;;26.33;51.12;96407.50;4971138;28;20061;-65
2021/06/08 10:13:14;;;;;;;11.73;10.57;;;28.20;46.20;;;26.22;52.02;96407.56;4986733;28;20527;-66
2021/06/08 10:15:59;;;;;;;21.63;18.90;;;28.10;47.90;;;26.10;50.82;96401.72;5005641;28;20114;-68
2021/06/08 10:18:26;;;;;;;12.57;11.27;;;28.10;46.80;;;26.06;52.46;96402.59;5006834;28;20433;-64